createdAt,value
2022-12-29T00:01:44.984Z,4.85
2022-12-29T00:04:47.826Z,5.37
2022-12-29T00:07:50.507Z,5.30
2022-12-29T00:10:55.154Z,5.28
2022-12-29T00:14:19.215Z,4.97
2022-12-29T00:17:24.348Z,4.47
2022-12-29T00:20:45.772Z,4.62
2022-12-29T00:24:07.554Z,4.85
2022-12-29T00:27:31.177Z,4.43
2022-12-29T00:30:52.880Z,4.70
2022-12-29T00:34:13.865Z,4.47
2022-12-29T00:37:18.081Z,5.55
2022-12-29T00:40:39.486Z,6.43
2022-12-29T00:44:00.947Z,5.00
2022-12-29T00:47:05.360Z,5.00
2022-12-29T00:50:08.798Z,5.28
2022-12-29T00:53:13.086Z,5.43
2022-12-29T00:56:16.379Z,5.55
2022-12-29T00:59:21.108Z,4.28
2022-12-29T01:02:24.188Z,4.10
2022-12-29T01:05:26.931Z,4.78
2022-12-29T01:08:30.084Z,4.90
2022-12-29T01:11:32.652Z,3.92
2022-12-29T01:14:36.671Z,4.25
2022-12-29T01:17:39.533Z,5.15
2022-12-29T01:20:42.400Z,4.85
2022-12-29T01:23:45.004Z,5.50
2022-12-29T01:26:49.467Z,4.65
2022-12-29T01:29:52.867Z,5.22
2022-12-29T01:32:55.770Z,4.15
2022-12-29T01:36:05.761Z,4.78
2022-12-29T01:39:08.888Z,4.37
2022-12-29T01:42:25.278Z,5.35
2022-12-29T01:45:28.298Z,4.20
2022-12-29T01:48:30.983Z,4.65
2022-12-29T01:51:43.485Z,3.72
2022-12-29T01:54:52.576Z,4.68
2022-12-29T01:58:01.048Z,4.62
2022-12-29T02:01:04.170Z,3.50
2022-12-29T02:04:08.413Z,3.90
2022-12-29T02:07:23.916Z,5.03
2022-12-29T02:10:30.996Z,5.90
2022-12-29T02:13:33.590Z,4.12
2022-12-29T02:16:43.100Z,4.68
2022-12-29T02:19:54.537Z,4.50
2022-12-29T02:23:17.354Z,4.43
2022-12-29T02:26:35.960Z,5.05
2022-12-29T02:29:57.499Z,4.53
2022-12-29T02:33:13.594Z,3.95
2022-12-29T02:36:45.341Z,5.85
2022-12-29T02:40:12.359Z,5.00
2022-12-29T02:43:27.033Z,5.87
2022-12-29T02:46:42.670Z,5.50
2022-12-29T02:49:57.660Z,4.87
2022-12-29T02:53:08.830Z,6.15
2022-12-29T02:56:11.711Z,4.28
2022-12-29T02:59:15.213Z,5.05
2022-12-29T03:02:58.006Z,4.37
2022-12-29T03:06:13.847Z,5.95
2022-12-29T03:09:42.019Z,6.47
2022-12-29T03:13:16.099Z,4.93
2022-12-29T03:16:41.325Z,4.85
2022-12-29T03:19:52.082Z,5.97
2022-12-29T03:23:01.694Z,4.95
2022-12-29T03:26:11.020Z,6.43
2022-12-29T03:29:16.395Z,5.30
2022-12-29T03:32:21.245Z,5.18
2022-12-29T03:35:28.422Z,5.53
2022-12-29T03:39:16.481Z,5.72
2022-12-29T03:42:26.337Z,5.18
2022-12-29T03:45:28.931Z,5.40
2022-12-29T03:48:33.876Z,5.47
2022-12-29T03:51:37.425Z,6.07
2022-12-29T03:54:41.571Z,5.15
2022-12-29T03:57:44.369Z,5.82
2022-12-29T04:00:48.962Z,5.90
2022-12-29T04:03:52.060Z,6.22
2022-12-29T04:06:54.774Z,4.72
2022-12-29T04:09:57.735Z,5.85
2022-12-29T04:13:01.007Z,5.97
2022-12-29T04:16:04.149Z,4.78
2022-12-29T04:19:08.407Z,4.55
2022-12-29T04:22:12.774Z,5.12
2022-12-29T04:25:16.137Z,5.03
2022-12-29T04:28:20.265Z,5.97
2022-12-29T04:31:23.396Z,6.28
2022-12-29T04:34:26.638Z,4.28
2022-12-29T04:37:29.557Z,5.53
2022-12-29T04:40:33.867Z,5.55
2022-12-29T04:43:36.812Z,5.18
2022-12-29T04:46:41.045Z,5.47
2022-12-29T04:49:44.008Z,6.60
2022-12-29T04:52:47.157Z,5.37
2022-12-29T04:55:53.640Z,5.47
2022-12-29T04:58:57.870Z,6.90
2022-12-29T05:02:02.346Z,5.65
2022-12-29T05:05:06.458Z,5.82
2022-12-29T05:08:09.904Z,5.93
2022-12-29T05:11:13.609Z,4.55
2022-12-29T05:14:16.289Z,6.37
2022-12-29T05:17:21.878Z,6.70
2022-12-29T05:20:24.554Z,5.37
2022-12-29T05:23:27.513Z,5.07
2022-12-29T05:26:30.526Z,7.32
2022-12-29T05:29:33.541Z,7.62
2022-12-29T05:32:36.271Z,5.15
2022-12-29T05:35:39.222Z,6.62
2022-12-29T05:38:41.955Z,5.75
2022-12-29T05:41:45.000Z,5.97
2022-12-29T05:44:51.110Z,6.25
2022-12-29T05:47:54.065Z,7.00
2022-12-29T05:50:57.058Z,5.95
2022-12-29T05:54:00.276Z,5.68
2022-12-29T05:57:03.337Z,5.90
2022-12-29T06:00:07.895Z,7.05
2022-12-29T06:03:17.065Z,7.15
2022-12-29T06:06:20.532Z,5.90
2022-12-29T06:09:24.007Z,6.28
2022-12-29T06:12:29.071Z,5.05
2022-12-29T06:15:32.299Z,6.12
2022-12-29T06:18:36.141Z,5.80
2022-12-29T06:21:39.058Z,6.15
2022-12-29T06:24:42.496Z,7.05
2022-12-29T06:27:45.391Z,6.22
2022-12-29T06:30:49.624Z,5.75
2022-12-29T06:33:53.721Z,6.15
2022-12-29T06:36:56.688Z,5.72
2022-12-29T06:39:59.659Z,5.90
2022-12-29T06:43:02.984Z,4.85
2022-12-29T06:46:06.316Z,7.40
2022-12-29T06:49:09.405Z,5.35
2022-12-29T06:52:13.124Z,5.22
2022-12-29T06:55:16.305Z,6.60
2022-12-29T06:58:19.262Z,7.07
2022-12-29T07:01:22.239Z,7.82
2022-12-29T07:04:25.135Z,7.10
2022-12-29T07:07:28.066Z,6.05
2022-12-29T07:10:30.829Z,6.05
2022-12-29T07:13:34.108Z,7.03
2022-12-29T07:16:37.014Z,7.45
2022-12-29T07:19:39.888Z,7.70
2022-12-29T07:22:42.970Z,8.00
2022-12-29T07:25:45.850Z,5.80
2022-12-29T07:28:48.532Z,5.78
2022-12-29T07:31:51.522Z,6.97
2022-12-29T07:34:54.142Z,7.93
2022-12-29T07:37:57.031Z,7.80
2022-12-29T07:41:00.231Z,7.75
2022-12-29T07:44:03.284Z,7.18
2022-12-29T07:47:06.196Z,8.32
2022-12-29T07:50:09.399Z,8.65
2022-12-29T07:53:12.314Z,8.20
2022-12-29T07:56:15.431Z,6.72
2022-12-29T07:59:18.002Z,8.02
2022-12-29T08:02:21.095Z,8.70
2022-12-29T08:05:24.124Z,6.53
2022-12-29T08:08:26.952Z,8.70
2022-12-29T08:11:30.167Z,7.53
2022-12-29T08:14:32.722Z,7.72
2022-12-29T08:17:36.039Z,8.27
2022-12-29T08:20:38.695Z,8.27
2022-12-29T08:23:41.709Z,8.13
2022-12-29T08:26:44.317Z,10.20
2022-12-29T08:29:47.409Z,8.52
2022-12-29T08:32:50.069Z,9.25
2022-12-29T08:35:53.228Z,9.30
2022-12-29T08:38:55.769Z,9.20
2022-12-29T08:41:58.649Z,7.62
2022-12-29T08:45:01.972Z,9.73
2022-12-29T08:48:05.421Z,9.55
2022-12-29T08:51:08.797Z,8.98
2022-12-29T08:54:11.928Z,8.25
2022-12-29T08:57:14.515Z,8.77
2022-12-29T09:00:18.101Z,8.88
2022-12-29T09:03:45.513Z,8.90
2022-12-29T09:06:44.869Z,7.07
2022-12-29T09:09:47.666Z,10.25
2022-12-29T09:12:50.642Z,8.45
2022-12-29T09:15:59.744Z,8.98
2022-12-29T09:19:04.041Z,9.05
2022-12-29T09:22:06.873Z,9.77
2022-12-29T09:25:10.672Z,8.88
2022-12-29T09:28:13.383Z,9.15
2022-12-29T09:31:16.290Z,7.93
2022-12-29T09:34:18.910Z,8.93
2022-12-29T09:37:22.557Z,8.73
2022-12-29T09:40:30.949Z,9.68
2022-12-29T09:44:00.264Z,8.77
2022-12-29T09:47:03.122Z,8.73
2022-12-29T09:50:15.882Z,8.05
2022-12-29T09:53:41.504Z,9.43
2022-12-29T09:56:45.636Z,8.02
2022-12-29T09:59:51.808Z,8.55
2022-12-29T10:03:03.789Z,9.07
2022-12-29T10:06:18.516Z,9.20
2022-12-29T10:09:35.035Z,7.78
2022-12-29T10:12:59.915Z,8.27
2022-12-29T10:16:17.896Z,8.32
2022-12-29T10:19:39.828Z,8.30
2022-12-29T10:23:13.633Z,7.97
2022-12-29T10:26:20.403Z,6.90
2022-12-29T10:29:34.711Z,9.18
2022-12-29T10:32:44.149Z,8.73
2022-12-29T10:35:48.632Z,9.45
2022-12-29T10:39:12.520Z,8.00
2022-12-29T10:42:29.884Z,6.85
2022-12-29T10:45:35.089Z,8.02
2022-12-29T10:48:39.442Z,10.50
2022-12-29T10:51:45.319Z,9.85
2022-12-29T10:55:02.458Z,11.27
2022-12-29T10:58:08.089Z,8.80
2022-12-29T11:01:13.783Z,10.00
2022-12-29T11:04:54.327Z,10.43
2022-12-29T11:08:01.301Z,10.07
2022-12-29T11:11:07.575Z,9.55
2022-12-29T11:14:13.469Z,9.02
2022-12-29T11:17:19.259Z,9.77
2022-12-29T11:20:43.200Z,10.85
2022-12-29T11:23:57.507Z,9.82
2022-12-29T11:27:18.705Z,9.52
2022-12-29T11:30:27.229Z,9.27
2022-12-29T11:33:34.071Z,9.70
2022-12-29T11:36:37.284Z,10.20
2022-12-29T11:39:59.503Z,10.38
2022-12-29T11:43:05.265Z,9.00
2022-12-29T11:46:14.916Z,10.25
2022-12-29T11:49:27.022Z,8.20
2022-12-29T11:52:36.074Z,9.82
2022-12-29T11:58:41.552Z,10.57
2022-12-29T12:01:46.520Z,10.38
2022-12-29T12:04:55.080Z,9.25
2022-12-29T12:08:23.831Z,9.57
2022-12-29T12:11:38.899Z,10.68
2022-12-29T12:15:00.309Z,11.00
2022-12-29T12:18:13.086Z,9.65
2022-12-29T12:21:45.532Z,9.93
2022-12-29T12:24:56.038Z,9.48
2022-12-29T12:28:03.016Z,10.05
2022-12-29T12:31:15.755Z,10.18
2022-12-29T12:34:37.096Z,10.02
2022-12-29T12:37:59.006Z,9.93
2022-12-29T12:41:01.795Z,10.93
2022-12-29T12:44:44.704Z,10.90
2022-12-29T12:47:57.135Z,10.70
2022-12-29T12:51:20.826Z,10.63
2022-12-29T12:54:38.768Z,11.68
2022-12-29T12:58:24.050Z,11.38
2022-12-29T13:01:32.513Z,9.95
2022-12-29T13:05:39.107Z,10.40
2022-12-29T13:09:12.749Z,10.20
2022-12-29T13:13:03.433Z,10.50
2022-12-29T13:16:16.181Z,10.27
2022-12-29T13:19:42.251Z,11.23
2022-12-29T13:23:17.332Z,10.50
2022-12-29T13:26:43.186Z,11.10
2022-12-29T13:30:06.031Z,12.40
2022-12-29T13:33:28.096Z,9.70
2022-12-29T13:36:49.022Z,11.40
2022-12-29T13:39:56.332Z,11.15
2022-12-29T13:42:59.230Z,10.73
2022-12-29T13:46:13.945Z,11.77
2022-12-29T13:49:20.474Z,9.52
2022-12-29T13:52:38.748Z,11.80
2022-12-29T13:55:49.480Z,11.12
2022-12-29T13:59:04.946Z,11.82
2022-12-29T14:02:34.395Z,11.07
2022-12-29T14:05:37.440Z,10.90
2022-12-29T14:08:40.462Z,10.80
2022-12-29T14:11:45.336Z,10.48
2022-12-29T14:14:48.042Z,10.10
2022-12-29T14:18:07.220Z,10.18
2022-12-29T14:21:23.679Z,10.50
2022-12-29T14:24:38.731Z,11.15
2022-12-29T14:27:46.075Z,10.57
2022-12-29T14:30:51.905Z,10.82
2022-12-29T14:34:06.701Z,9.93
2022-12-29T14:37:24.342Z,10.63
2022-12-29T14:40:27.913Z,10.80
2022-12-29T14:43:31.249Z,9.52
2022-12-29T14:46:58.138Z,10.02
2022-12-29T14:50:08.958Z,10.00
2022-12-29T14:53:44.571Z,8.88
2022-12-29T14:56:47.739Z,8.95
2022-12-29T14:59:55.410Z,9.20
2022-12-29T15:03:09.131Z,9.88
2022-12-29T15:06:14.396Z,9.38
2022-12-29T15:09:37.217Z,10.00
2022-12-29T15:12:44.752Z,9.68
2022-12-29T15:15:47.776Z,8.77
2022-12-29T15:18:50.407Z,10.23
2022-12-29T15:21:55.534Z,10.68
2022-12-29T15:24:59.048Z,8.48
2022-12-29T15:28:05.408Z,9.68
2022-12-29T15:31:17.402Z,9.32
2022-12-29T15:34:22.030Z,9.00
2022-12-29T15:37:33.308Z,9.43
2022-12-29T15:40:36.440Z,9.20
2022-12-29T15:43:54.171Z,11.57
2022-12-29T15:46:57.180Z,8.95
2022-12-29T15:50:36.640Z,11.45
2022-12-29T15:53:39.771Z,10.27
2022-12-29T15:56:43.012Z,10.18
2022-12-29T15:59:48.044Z,9.60
2022-12-29T16:02:50.930Z,9.70
2022-12-29T16:06:09.205Z,12.30
2022-12-29T16:09:21.385Z,11.02
2022-12-29T16:12:32.522Z,9.98
2022-12-29T16:15:35.312Z,10.55
2022-12-29T16:18:38.701Z,11.18
2022-12-29T16:21:42.886Z,10.35
2022-12-29T16:24:46.566Z,11.57
2022-12-29T16:27:49.731Z,10.32
2022-12-29T16:31:04.592Z,12.77
2022-12-29T16:34:28.988Z,10.98
2022-12-29T16:37:38.167Z,8.60
2022-12-29T16:41:03.082Z,10.50
2022-12-29T16:44:19.108Z,11.43
2022-12-29T16:47:23.251Z,10.68
2022-12-29T16:50:28.785Z,9.93
2022-12-29T16:53:36.687Z,11.75
2022-12-29T16:56:45.608Z,10.73
2022-12-29T16:59:53.892Z,10.95
2022-12-29T17:06:01.368Z,8.15
2022-12-29T17:09:21.370Z,10.85
2022-12-29T17:12:30.102Z,11.27
2022-12-29T17:15:35.231Z,10.80
2022-12-29T17:18:38.363Z,11.00
2022-12-29T17:21:41.803Z,11.00
2022-12-29T17:24:44.359Z,9.38
2022-12-29T17:28:05.368Z,12.05
2022-12-29T17:31:10.361Z,11.75
2022-12-29T17:34:14.202Z,12.25
2022-12-29T17:37:38.170Z,14.73
2022-12-29T17:40:41.305Z,12.00
2022-12-29T17:43:43.902Z,11.07
2022-12-29T17:46:48.564Z,12.65
2022-12-29T17:49:51.232Z,11.90
2022-12-29T17:53:00.838Z,13.62
2022-12-29T17:56:03.924Z,10.32
2022-12-29T17:59:12.637Z,10.85
2022-12-29T18:02:32.371Z,10.75
2022-12-29T18:05:35.434Z,11.38
2022-12-29T18:08:40.737Z,11.15
2022-12-29T18:11:44.258Z,12.48
2022-12-29T18:14:47.097Z,10.80
2022-12-29T18:18:14.969Z,11.00
2022-12-29T18:21:20.875Z,10.88
2022-12-29T18:24:23.759Z,11.63
2022-12-29T18:27:26.548Z,10.45
2022-12-29T18:30:29.549Z,10.38
2022-12-29T18:33:32.354Z,9.80
2022-12-29T18:36:35.266Z,9.65
2022-12-29T18:39:38.240Z,13.32
2022-12-29T18:42:41.212Z,12.20
2022-12-29T18:45:47.592Z,12.60
2022-12-29T18:48:51.619Z,12.20
2022-12-29T18:51:54.531Z,9.48
2022-12-29T18:54:57.382Z,12.90
2022-12-29T18:57:59.976Z,11.98
2022-12-29T19:01:03.114Z,12.43
2022-12-29T19:04:06.314Z,10.63
2022-12-29T19:07:09.376Z,12.98
2022-12-29T19:10:12.757Z,11.82
2022-12-29T19:13:18.958Z,11.23
2022-12-29T19:16:22.703Z,9.93
2022-12-29T19:19:25.768Z,10.65
2022-12-29T19:22:28.749Z,12.30
2022-12-29T19:25:32.200Z,10.40
2022-12-29T19:28:35.054Z,9.75
2022-12-29T19:31:39.111Z,11.68
2022-12-29T19:34:41.875Z,10.88
2022-12-29T19:37:45.293Z,10.65
2022-12-29T19:40:50.855Z,11.50
2022-12-29T19:43:53.874Z,11.82
2022-12-29T19:46:56.531Z,8.88
2022-12-29T19:49:59.982Z,9.63
2022-12-29T19:53:05.695Z,11.35
2022-12-29T19:56:09.324Z,10.45
2022-12-29T19:59:12.151Z,12.07
2022-12-29T20:02:26.845Z,10.63
2022-12-29T20:05:29.845Z,11.60
2022-12-29T20:08:32.757Z,10.38
2022-12-29T20:11:37.079Z,9.98
2022-12-29T20:14:40.656Z,10.60
2022-12-29T20:18:12.307Z,10.68
2022-12-29T20:21:15.884Z,9.57
2022-12-29T20:24:18.859Z,10.00
2022-12-29T20:27:21.621Z,10.63
2022-12-29T20:30:25.108Z,12.18
2022-12-29T20:33:28.794Z,9.25
2022-12-29T20:36:34.864Z,10.60
2022-12-29T20:39:39.388Z,8.82
2022-12-29T20:42:42.302Z,11.00
2022-12-29T20:45:45.078Z,11.45
2022-12-29T20:48:48.782Z,11.05
2022-12-29T20:52:07.520Z,9.30
2022-12-29T20:55:10.527Z,10.07
2022-12-29T20:58:23.465Z,11.00
2022-12-29T21:01:27.372Z,9.65
2022-12-29T21:04:50.241Z,9.98
2022-12-29T21:07:54.080Z,8.77
2022-12-29T21:10:58.468Z,11.50
2022-12-29T21:14:01.766Z,10.18
2022-12-29T21:17:04.396Z,11.02
2022-12-29T21:20:07.994Z,10.45
2022-12-29T21:23:12.224Z,11.77
2022-12-29T21:26:17.772Z,12.98
2022-12-29T21:29:20.570Z,11.57
2022-12-29T21:32:23.396Z,12.13
2022-12-29T21:35:26.156Z,13.62
2022-12-29T21:38:31.867Z,11.40
2022-12-29T21:41:35.050Z,12.98
2022-12-29T21:44:56.428Z,13.70
2022-12-29T21:48:21.405Z,12.77
2022-12-29T21:51:42.903Z,12.50
2022-12-29T21:55:00.344Z,12.10
2022-12-29T21:58:22.793Z,12.55
2022-12-29T22:01:45.036Z,12.18
2022-12-29T22:05:07.551Z,10.23
2022-12-29T22:08:28.544Z,10.43
2022-12-29T22:11:50.047Z,10.18
2022-12-29T22:14:52.539Z,11.00
2022-12-29T22:17:55.846Z,11.20
2022-12-29T22:20:58.902Z,12.50
2022-12-29T22:24:01.735Z,10.93
2022-12-29T22:27:04.247Z,9.13
2022-12-29T22:30:08.685Z,10.13
2022-12-29T22:33:11.311Z,10.13
2022-12-29T22:36:14.194Z,11.07
2022-12-29T22:39:17.066Z,10.02
2022-12-29T22:42:19.907Z,10.48
2022-12-29T22:45:22.439Z,14.10
2022-12-29T22:48:25.415Z,13.77
2022-12-29T22:51:27.998Z,11.07
2022-12-29T22:54:31.368Z,11.15
2022-12-29T22:57:34.658Z,14.10
2022-12-29T23:00:37.723Z,12.73
2022-12-29T23:03:41.113Z,12.13
2022-12-29T23:06:43.994Z,13.13
2022-12-29T23:09:47.122Z,13.05
2022-12-29T23:12:50.069Z,13.38
2022-12-29T23:15:52.849Z,13.90
2022-12-29T23:18:55.750Z,14.55
2022-12-29T23:21:58.464Z,14.98
2022-12-29T23:25:01.559Z,14.50
2022-12-29T23:28:05.822Z,14.60
2022-12-29T23:31:08.750Z,13.80
2022-12-29T23:34:12.850Z,15.20
2022-12-29T23:37:15.698Z,14.48
2022-12-29T23:40:18.330Z,14.55
2022-12-29T23:43:21.311Z,14.95
2022-12-29T23:46:26.603Z,16.73
2022-12-29T23:49:29.546Z,16.20
2022-12-29T23:52:32.138Z,14.77
2022-12-29T23:55:35.056Z,15.55
2022-12-29T23:58:38.618Z,18.15
